createdAt,value
2023-10-08T00:10:28.654Z,0
2023-10-08T00:26:26.939Z,0
2023-10-08T00:37:05.873Z,0
2023-10-08T00:42:25.206Z,0
2023-10-08T00:53:03.902Z,0
2023-10-08T00:58:23.052Z,0
2023-10-08T01:09:01.321Z,0
2023-10-08T01:24:58.588Z,0
2023-10-08T01:35:37.300Z,0
2023-10-08T01:40:56.582Z,0
2023-10-08T01:51:34.937Z,0
2023-10-08T02:07:33.153Z,0
2023-10-08T02:18:12.057Z,0
2023-10-08T02:23:31.256Z,0
2023-10-08T02:34:09.039Z,0
2023-10-08T02:39:28.321Z,0
2023-10-08T02:50:06.983Z,0
2023-10-08T03:06:05.139Z,0
2023-10-08T03:16:42.901Z,0
2023-10-08T03:32:40.829Z,0
2023-10-08T03:48:39.228Z,0
2023-10-08T03:59:17.746Z,0
2023-10-08T04:04:37.401Z,0
2023-10-08T04:15:15.302Z,0
2023-10-08T04:20:35.083Z,0
2023-10-08T04:31:12.737Z,0
2023-10-08T04:41:51.435Z,0
2023-10-08T04:47:10.560Z,0
2023-10-08T04:57:49.097Z,0
2023-10-08T05:03:08.474Z,0
2023-10-08T05:13:46.366Z,0
2023-10-08T05:29:43.646Z,0.0018
2023-10-08T05:40:22.144Z,0.0261
2023-10-08T05:45:41.077Z,0.0326
2023-10-08T05:51:00.731Z,0.0398
2023-10-08T06:06:59.776Z,0.0551
2023-10-08T06:17:37.640Z,0.056
2023-10-08T06:22:57.086Z,0.0603
2023-10-08T06:33:35.331Z,0.0605
2023-10-08T06:38:53.991Z,0.0599
2023-10-08T06:49:32.307Z,0.0567
2023-10-08T07:05:29.893Z,0.1421
2023-10-08T07:16:08.732Z,0.2264
2023-10-08T07:21:28.164Z,0.2217
2023-10-08T07:32:06.421Z,0.2209
2023-10-08T07:42:44.319Z,0.164
2023-10-08T07:48:03.662Z,0.178
2023-10-08T07:58:41.751Z,0.2454
2023-10-08T08:04:01.281Z,0.2821
2023-10-08T08:14:40.578Z,0.4356
2023-10-08T08:30:38.281Z,0.318
2023-10-08T08:41:16.423Z,0.5542
2023-10-08T08:46:35.958Z,0.3089
2023-10-08T08:57:13.925Z,0.2599
2023-10-08T09:02:33.560Z,0.2863
2023-10-08T09:13:12.390Z,0.2491
2023-10-08T09:23:51.428Z,0.2741
2023-10-08T09:29:11.016Z,0.3084
2023-10-08T09:39:49.984Z,0.3057
2023-10-08T09:45:09.127Z,0.3512
2023-10-08T09:55:47.645Z,0.465
2023-10-08T10:11:44.991Z,0.5804
2023-10-08T10:22:22.846Z,0.8388
2023-10-08T10:27:41.969Z,1.4706
2023-10-08T10:38:19.851Z,0.6936
2023-10-08T10:43:38.836Z,0.5811
2023-10-08T10:54:18.114Z,0.5346
2023-10-08T11:04:56.345Z,0.7882
2023-10-08T11:10:15.872Z,0.8106
2023-10-08T11:20:53.317Z,0.5511
2023-10-08T11:26:11.974Z,0.4248
2023-10-08T11:36:51.094Z,0.4285
2023-10-08T11:52:48.666Z,0.5274
2023-10-08T12:03:26.437Z,0.4536
2023-10-08T12:08:45.742Z,0.418
2023-10-08T12:19:24.171Z,0.4872
2023-10-08T12:40:41.232Z,0.6294
2023-10-08T12:46:00.706Z,0.7111
2023-10-08T12:56:38.233Z,0.7796
2023-10-08T13:01:57.578Z,0.5382
2023-10-08T13:12:36.020Z,0.5005
2023-10-08T13:28:32.994Z,0.4191
2023-10-08T13:39:11.973Z,0.3306
2023-10-08T13:44:31.530Z,0.3327
2023-10-08T13:55:09.494Z,0.3268
2023-10-08T14:11:06.549Z,0.3212
2023-10-08T14:21:45.565Z,0.2761
2023-10-08T14:27:04.878Z,0.2581
2023-10-08T14:37:42.424Z,0.2465
2023-10-08T14:43:04.172Z,0.2315
2023-10-08T14:53:41.733Z,0.2272
2023-10-08T14:59:24.514Z,0.2811
2023-10-08T15:10:03.057Z,0.1991
2023-10-08T15:15:22.320Z,0.1965
2023-10-08T15:26:00.620Z,0.1664
2023-10-08T15:36:38.565Z,0.1171
2023-10-08T15:41:57.308Z,0.1033
2023-10-08T15:52:35.096Z,0.0668
2023-10-08T15:57:54.474Z,0.0592
2023-10-08T16:08:32.731Z,0.0557
2023-10-08T16:24:30.522Z,0.0402
2023-10-08T16:35:09.141Z,0.037
2023-10-08T16:40:28.406Z,0.0328
2023-10-08T16:51:06.256Z,0.0149
2023-10-08T16:56:25.688Z,0.003
2023-10-08T17:07:03.537Z,0
2023-10-08T17:17:42.046Z,0
2023-10-08T17:23:01.474Z,0
2023-10-08T17:33:39.848Z,0
2023-10-08T17:38:58.941Z,0
2023-10-08T17:49:38.218Z,0
2023-10-08T18:05:35.753Z,0
2023-10-08T18:21:33.324Z,0
2023-10-08T18:32:10.970Z,0
2023-10-08T18:48:09.328Z,0
2023-10-08T19:04:05.864Z,0
2023-10-08T19:14:44.544Z,0
2023-10-08T19:25:22.715Z,0
2023-10-08T19:41:21.108Z,0
2023-10-08T19:52:00.123Z,0
2023-10-08T19:57:19.716Z,0
2023-10-08T20:07:57.843Z,0
2023-10-08T20:13:17.052Z,0
2023-10-08T20:23:55.466Z,0
2023-10-08T20:34:33.439Z,0
2023-10-08T20:39:52.230Z,0
2023-10-08T20:50:32.425Z,0
2023-10-08T21:06:28.054Z,0
2023-10-08T21:17:05.901Z,0
2023-10-08T21:22:25.130Z,0
2023-10-08T21:33:03.026Z,0
2023-10-08T21:48:59.841Z,0
2023-10-08T22:04:57.386Z,0
2023-10-08T22:15:35.549Z,0
2023-10-08T22:20:55.276Z,0
2023-10-08T22:31:33.526Z,0
2023-10-08T22:47:30.373Z,0
2023-10-08T22:58:08.769Z,0
2023-10-08T23:03:28.113Z,0
2023-10-08T23:14:05.648Z,0
2023-10-08T23:30:03.972Z,0
2023-10-08T23:40:43.143Z,0
2023-10-08T23:46:02.199Z,0
2023-10-08T23:56:40.539Z,0
